sensor_id;sensor_type;location;lat;lon;timestamp;temperature;humidity
67750;DHT22;54550;48.838;8.828;2022-08-03T00:01:27;18.20;99.90
67750;DHT22;54550;48.838;8.828;2022-08-03T00:03:52;18.10;99.90
67750;DHT22;54550;48.838;8.828;2022-08-03T00:06:18;18.10;99.90
67750;DHT22;54550;48.838;8.828;2022-08-03T00:08:44;18.00;99.90
67750;DHT22;54550;48.838;8.828;2022-08-03T00:11:10;17.90;99.90
67750;DHT22;54550;48.838;8.828;2022-08-03T00:13:36;18.00;99.90
67750;DHT22;54550;48.838;8.828;2022-08-03T00:16:02;18.00;99.90
67750;DHT22;54550;48.838;8.828;2022-08-03T00:18:27;18.00;99.90
67750;DHT22;54550;48.838;8.828;2022-08-03T00:20:53;18.00;99.90
67750;DHT22;54550;48.838;8.828;2022-08-03T00:23:18;18.10;99.90
67750;DHT22;54550;48.838;8.828;2022-08-03T00:25:44;18.10;99.90
67750;DHT22;54550;48.838;8.828;2022-08-03T00:28:09;18.10;99.90
67750;DHT22;54550;48.838;8.828;2022-08-03T00:30:35;18.10;99.90
67750;DHT22;54550;48.838;8.828;2022-08-03T00:33:01;18.20;99.90
67750;DHT22;54550;48.838;8.828;2022-08-03T00:35:27;18.30;99.90
67750;DHT22;54550;48.838;8.828;2022-08-03T00:37:53;18.30;99.90
67750;DHT22;54550;48.838;8.828;2022-08-03T00:40:19;18.40;99.90
67750;DHT22;54550;48.838;8.828;2022-08-03T00:42:56;18.40;99.90
67750;DHT22;54550;48.838;8.828;2022-08-03T00:45:24;18.40;99.90
67750;DHT22;54550;48.838;8.828;2022-08-03T00:47:50;18.40;99.90
67750;DHT22;54550;48.838;8.828;2022-08-03T00:50:17;18.30;99.90
67750;DHT22;54550;48.838;8.828;2022-08-03T00:53:02;18.10;99.90
67750;DHT22;54550;48.838;8.828;2022-08-03T00:55:29;18.00;99.90
67750;DHT22;54550;48.838;8.828;2022-08-03T00:57:54;18.00;99.90
67750;DHT22;54550;48.838;8.828;2022-08-03T01:00:23;17.90;99.90
67750;DHT22;54550;48.838;8.828;2022-08-03T01:02:50;17.90;99.90
67750;DHT22;54550;48.838;8.828;2022-08-03T01:05:16;18.00;99.90
67750;DHT22;54550;48.838;8.828;2022-08-03T01:10:56;18.00;99.90
67750;DHT22;54550;48.838;8.828;2022-08-03T01:16:13;17.90;99.90
67750;DHT22;54550;48.838;8.828;2022-08-03T01:21:23;17.80;99.90
67750;DHT22;54550;48.838;8.828;2022-08-03T01:23:58;17.80;99.90
67750;DHT22;54550;48.838;8.828;2022-08-03T01:26:48;17.80;99.90
67750;DHT22;54550;48.838;8.828;2022-08-03T01:32:06;17.80;99.90
67750;DHT22;54550;48.838;8.828;2022-08-03T01:34:42;17.80;99.90
67750;DHT22;54550;48.838;8.828;2022-08-03T01:37:10;17.90;99.90
67750;DHT22;54550;48.838;8.828;2022-08-03T01:39:37;17.90;99.90
67750;DHT22;54550;48.838;8.828;2022-08-03T01:42:05;17.90;99.90
67750;DHT22;54550;48.838;8.828;2022-08-03T01:44:36;17.90;99.90
67750;DHT22;54550;48.838;8.828;2022-08-03T01:47:03;17.80;99.90
67750;DHT22;54550;48.838;8.828;2022-08-03T01:49:30;17.70;99.90
67750;DHT22;54550;48.838;8.828;2022-08-03T01:51:57;17.50;99.90
67750;DHT22;54550;48.838;8.828;2022-08-03T01:54:25;17.50;99.90
67750;DHT22;54550;48.838;8.828;2022-08-03T01:56:53;17.50;99.90
67750;DHT22;54550;48.838;8.828;2022-08-03T01:59:21;17.60;99.90
67750;DHT22;54550;48.838;8.828;2022-08-03T02:01:48;17.50;99.90
67750;DHT22;54550;48.838;8.828;2022-08-03T02:04:16;17.60;99.90
67750;DHT22;54550;48.838;8.828;2022-08-03T02:06:44;17.60;99.90
67750;DHT22;54550;48.838;8.828;2022-08-03T02:09:12;17.70;99.90
67750;DHT22;54550;48.838;8.828;2022-08-03T02:11:39;17.60;99.90
67750;DHT22;54550;48.838;8.828;2022-08-03T02:14:05;17.60;99.90
67750;DHT22;54550;48.838;8.828;2022-08-03T02:16:32;17.50;99.90
67750;DHT22;54550;48.838;8.828;2022-08-03T02:19:02;17.40;99.90
67750;DHT22;54550;48.838;8.828;2022-08-03T02:21:29;17.30;99.90
67750;DHT22;54550;48.838;8.828;2022-08-03T02:23:56;17.20;99.90
67750;DHT22;54550;48.838;8.828;2022-08-03T02:26:23;17.00;99.90
67750;DHT22;54550;48.838;8.828;2022-08-03T02:28:51;17.00;99.90
67750;DHT22;54550;48.838;8.828;2022-08-03T02:31:23;17.00;99.90
67750;DHT22;54550;48.838;8.828;2022-08-03T02:33:55;17.00;99.90
67750;DHT22;54550;48.838;8.828;2022-08-03T02:36:24;16.90;99.90
67750;DHT22;54550;48.838;8.828;2022-08-03T02:38:55;17.00;99.90
67750;DHT22;54550;48.838;8.828;2022-08-03T02:41:44;16.90;99.90
67750;DHT22;54550;48.838;8.828;2022-08-03T02:44:11;16.90;99.90
67750;DHT22;54550;48.838;8.828;2022-08-03T02:46:38;16.80;99.90
67750;DHT22;54550;48.838;8.828;2022-08-03T02:49:07;16.80;99.90
67750;DHT22;54550;48.838;8.828;2022-08-03T02:51:35;16.80;99.90
67750;DHT22;54550;48.838;8.828;2022-08-03T02:54:03;16.90;99.90
67750;DHT22;54550;48.838;8.828;2022-08-03T02:56:29;16.90;99.90
67750;DHT22;54550;48.838;8.828;2022-08-03T02:58:56;16.90;99.90
67750;DHT22;54550;48.838;8.828;2022-08-03T03:01:24;16.90;99.90
67750;DHT22;54550;48.838;8.828;2022-08-03T03:03:51;16.90;99.90
67750;DHT22;54550;48.838;8.828;2022-08-03T03:06:18;17.00;99.90
67750;DHT22;54550;48.838;8.828;2022-08-03T03:08:45;16.90;99.90
67750;DHT22;54550;48.838;8.828;2022-08-03T03:11:12;16.90;99.90
67750;DHT22;54550;48.838;8.828;2022-08-03T03:13:38;16.90;99.90
67750;DHT22;54550;48.838;8.828;2022-08-03T03:16:05;16.80;99.90
67750;DHT22;54550;48.838;8.828;2022-08-03T03:18:33;16.80;99.90
67750;DHT22;54550;48.838;8.828;2022-08-03T03:21:00;16.90;99.90
67750;DHT22;54550;48.838;8.828;2022-08-03T03:23:27;16.90;99.90
67750;DHT22;54550;48.838;8.828;2022-08-03T03:25:54;16.90;99.90
67750;DHT22;54550;48.838;8.828;2022-08-03T03:28:22;16.90;99.90
67750;DHT22;54550;48.838;8.828;2022-08-03T03:30:48;16.80;99.90
67750;DHT22;54550;48.838;8.828;2022-08-03T03:33:13;16.70;99.90
67750;DHT22;54550;48.838;8.828;2022-08-03T03:35:40;16.70;99.90
67750;DHT22;54550;48.838;8.828;2022-08-03T03:38:07;16.60;99.90
67750;DHT22;54550;48.838;8.828;2022-08-03T03:40:37;16.70;99.90
67750;DHT22;54550;48.838;8.828;2022-08-03T03:43:07;16.60;99.90
67750;DHT22;54550;48.838;8.828;2022-08-03T03:45:33;16.60;99.90
67750;DHT22;54550;48.838;8.828;2022-08-03T03:48:00;16.60;99.90
67750;DHT22;54550;48.838;8.828;2022-08-03T03:50:27;16.50;99.90
67750;DHT22;54550;48.838;8.828;2022-08-03T03:52:52;16.50;99.90
67750;DHT22;54550;48.838;8.828;2022-08-03T03:55:18;16.50;99.90
67750;DHT22;54550;48.838;8.828;2022-08-03T03:57:44;16.50;99.90
67750;DHT22;54550;48.838;8.828;2022-08-03T04:00:12;16.40;99.90
67750;DHT22;54550;48.838;8.828;2022-08-03T04:02:38;16.40;99.90
67750;DHT22;54550;48.838;8.828;2022-08-03T04:05:04;16.30;99.90
67750;DHT22;54550;48.838;8.828;2022-08-03T04:13:36;16.50;99.90
67750;DHT22;54550;48.838;8.828;2022-08-03T04:16:03;16.50;99.90
67750;DHT22;54550;48.838;8.828;2022-08-03T04:18:31;16.50;99.90
67750;DHT22;54550;48.838;8.828;2022-08-03T04:21:02;16.50;99.90
67750;DHT22;54550;48.838;8.828;2022-08-03T04:23:30;16.40;99.90
67750;DHT22;54550;48.838;8.828;2022-08-03T04:25:58;16.50;99.90
67750;DHT22;54550;48.838;8.828;2022-08-03T04:28:26;16.50;99.90
67750;DHT22;54550;48.838;8.828;2022-08-03T04:30:53;16.50;99.90
67750;DHT22;54550;48.838;8.828;2022-08-03T04:33:21;16.60;99.90
67750;DHT22;54550;48.838;8.828;2022-08-03T04:35:48;16.60;99.90
67750;DHT22;54550;48.838;8.828;2022-08-03T04:38:17;16.80;99.90
67750;DHT22;54550;48.838;8.828;2022-08-03T04:40:45;16.80;99.90
67750;DHT22;54550;48.838;8.828;2022-08-03T04:43:14;16.80;99.90
67750;DHT22;54550;48.838;8.828;2022-08-03T04:45:41;16.80;99.90
67750;DHT22;54550;48.838;8.828;2022-08-03T04:48:07;16.80;99.90
67750;DHT22;54550;48.838;8.828;2022-08-03T04:50:33;16.80;99.90
67750;DHT22;54550;48.838;8.828;2022-08-03T04:52:59;16.90;99.90
67750;DHT22;54550;48.838;8.828;2022-08-03T04:55:29;16.90;99.90
67750;DHT22;54550;48.838;8.828;2022-08-03T04:57:56;17.00;99.90
67750;DHT22;54550;48.838;8.828;2022-08-03T05:00:22;17.10;99.90
67750;DHT22;54550;48.838;8.828;2022-08-03T05:02:47;17.10;99.90
67750;DHT22;54550;48.838;8.828;2022-08-03T05:05:14;17.00;99.90
67750;DHT22;54550;48.838;8.828;2022-08-03T05:07:40;17.00;99.90
67750;DHT22;54550;48.838;8.828;2022-08-03T05:10:08;17.10;99.90
67750;DHT22;54550;48.838;8.828;2022-08-03T05:12:34;17.20;99.90
67750;DHT22;54550;48.838;8.828;2022-08-03T05:15:00;17.30;99.90
67750;DHT22;54550;48.838;8.828;2022-08-03T05:17:26;17.40;99.90
67750;DHT22;54550;48.838;8.828;2022-08-03T05:19:53;17.50;99.90
67750;DHT22;54550;48.838;8.828;2022-08-03T05:22:19;17.80;99.90
67750;DHT22;54550;48.838;8.828;2022-08-03T05:24:44;18.50;99.90
67750;DHT22;54550;48.838;8.828;2022-08-03T05:27:10;19.50;99.90
67750;DHT22;54550;48.838;8.828;2022-08-03T05:29:42;20.30;99.90
67750;DHT22;54550;48.838;8.828;2022-08-03T05:32:07;20.90;99.90
67750;DHT22;54550;48.838;8.828;2022-08-03T05:34:33;21.70;99.80
67750;DHT22;54550;48.838;8.828;2022-08-03T05:36:58;22.60;97.90
67750;DHT22;54550;48.838;8.828;2022-08-03T05:39:24;23.30;96.20
67750;DHT22;54550;48.838;8.828;2022-08-03T05:41:49;23.70;95.50
67750;DHT22;54550;48.838;8.828;2022-08-03T05:44:15;23.90;94.70
67750;DHT22;54550;48.838;8.828;2022-08-03T05:46:40;24.40;93.90
67750;DHT22;54550;48.838;8.828;2022-08-03T05:49:06;25.10;93.20
67750;DHT22;54550;48.838;8.828;2022-08-03T05:51:31;25.50;91.00
67750;DHT22;54550;48.838;8.828;2022-08-03T05:53:57;25.30;91.40
67750;DHT22;54550;48.838;8.828;2022-08-03T05:56:23;25.80;90.70
67750;DHT22;54550;48.838;8.828;2022-08-03T05:58:49;26.00;90.70
67750;DHT22;54550;48.838;8.828;2022-08-03T06:01:16;26.20;88.70
67750;DHT22;54550;48.838;8.828;2022-08-03T06:03:42;26.90;88.40
67750;DHT22;54550;48.838;8.828;2022-08-03T06:06:07;27.30;86.80
67750;DHT22;54550;48.838;8.828;2022-08-03T06:08:33;27.80;84.10
67750;DHT22;54550;48.838;8.828;2022-08-03T06:10:59;27.30;84.00
67750;DHT22;54550;48.838;8.828;2022-08-03T06:13:25;28.10;83.80
67750;DHT22;54550;48.838;8.828;2022-08-03T06:15:50;28.60;81.80
67750;DHT22;54550;48.838;8.828;2022-08-03T06:18:16;28.80;81.00
67750;DHT22;54550;48.838;8.828;2022-08-03T06:20:41;28.80;79.20
67750;DHT22;54550;48.838;8.828;2022-08-03T06:23:07;28.70;80.10
67750;DHT22;54550;48.838;8.828;2022-08-03T06:25:32;29.10;79.40
67750;DHT22;54550;48.838;8.828;2022-08-03T06:27:58;29.00;77.10
67750;DHT22;54550;48.838;8.828;2022-08-03T06:30:24;28.80;77.30
67750;DHT22;54550;48.838;8.828;2022-08-03T06:32:50;28.70;76.50
67750;DHT22;54550;48.838;8.828;2022-08-03T06:35:15;28.70;78.20
67750;DHT22;54550;48.838;8.828;2022-08-03T06:37:45;29.20;76.40
67750;DHT22;54550;48.838;8.828;2022-08-03T06:40:13;29.00;76.10
67750;DHT22;54550;48.838;8.828;2022-08-03T06:42:40;28.80;76.90
67750;DHT22;54550;48.838;8.828;2022-08-03T06:45:06;28.80;77.80
67750;DHT22;54550;48.838;8.828;2022-08-03T06:47:33;29.30;76.90
67750;DHT22;54550;48.838;8.828;2022-08-03T06:49:59;29.60;76.80
67750;DHT22;54550;48.838;8.828;2022-08-03T06:52:24;30.00;75.00
67750;DHT22;54550;48.838;8.828;2022-08-03T06:54:50;30.20;76.20
67750;DHT22;54550;48.838;8.828;2022-08-03T06:57:15;30.50;74.20
67750;DHT22;54550;48.838;8.828;2022-08-03T06:59:43;31.00;74.40
67750;DHT22;54550;48.838;8.828;2022-08-03T07:02:08;31.10;73.70
67750;DHT22;54550;48.838;8.828;2022-08-03T07:04:34;31.40;73.30
67750;DHT22;54550;48.838;8.828;2022-08-03T07:07:00;31.60;73.00
67750;DHT22;54550;48.838;8.828;2022-08-03T07:09:25;31.90;72.80
67750;DHT22;54550;48.838;8.828;2022-08-03T07:11:51;32.20;72.20
67750;DHT22;54550;48.838;8.828;2022-08-03T07:14:17;32.00;71.70
67750;DHT22;54550;48.838;8.828;2022-08-03T07:16:42;31.50;73.10
67750;DHT22;54550;48.838;8.828;2022-08-03T07:19:08;31.60;72.90
67750;DHT22;54550;48.838;8.828;2022-08-03T07:21:33;31.40;74.10
67750;DHT22;54550;48.838;8.828;2022-08-03T07:23:59;31.60;73.30
67750;DHT22;54550;48.838;8.828;2022-08-03T07:26:24;31.80;73.60
67750;DHT22;54550;48.838;8.828;2022-08-03T07:28:50;32.10;72.00
67750;DHT22;54550;48.838;8.828;2022-08-03T07:31:15;31.90;72.60
67750;DHT22;54550;48.838;8.828;2022-08-03T07:33:41;32.30;72.70
67750;DHT22;54550;48.838;8.828;2022-08-03T07:36:06;32.30;72.40
67750;DHT22;54550;48.838;8.828;2022-08-03T07:38:34;32.20;71.80
67750;DHT22;54550;48.838;8.828;2022-08-03T07:41:00;32.40;72.10
67750;DHT22;54550;48.838;8.828;2022-08-03T07:43:26;32.10;70.70
67750;DHT22;54550;48.838;8.828;2022-08-03T07:45:51;31.70;73.20
67750;DHT22;54550;48.838;8.828;2022-08-03T07:48:17;31.90;71.70
67750;DHT22;54550;48.838;8.828;2022-08-03T07:50:43;31.60;71.00
67750;DHT22;54550;48.838;8.828;2022-08-03T07:53:08;32.10;71.00
67750;DHT22;54550;48.838;8.828;2022-08-03T07:55:34;31.40;72.80
67750;DHT22;54550;48.838;8.828;2022-08-03T07:58:03;31.60;72.60
67750;DHT22;54550;48.838;8.828;2022-08-03T08:00:29;32.10;71.00
67750;DHT22;54550;48.838;8.828;2022-08-03T08:02:55;32.10;71.00
67750;DHT22;54550;48.838;8.828;2022-08-03T08:05:21;32.30;71.40
67750;DHT22;54550;48.838;8.828;2022-08-03T08:07:46;32.40;70.50
67750;DHT22;54550;48.838;8.828;2022-08-03T08:10:12;32.80;68.90
67750;DHT22;54550;48.838;8.828;2022-08-03T08:12:38;32.60;69.40
67750;DHT22;54550;48.838;8.828;2022-08-03T08:15:05;32.70;69.00
67750;DHT22;54550;48.838;8.828;2022-08-03T08:17:48;32.70;69.10
67750;DHT22;54550;48.838;8.828;2022-08-03T08:20:23;32.80;67.70
67750;DHT22;54550;48.838;8.828;2022-08-03T08:22:49;33.00;67.70
67750;DHT22;54550;48.838;8.828;2022-08-03T08:25:15;33.30;67.70
67750;DHT22;54550;48.838;8.828;2022-08-03T08:27:42;33.20;65.60
67750;DHT22;54550;48.838;8.828;2022-08-03T08:30:08;33.60;65.90
67750;DHT22;54550;48.838;8.828;2022-08-03T08:32:34;33.70;64.10
67750;DHT22;54550;48.838;8.828;2022-08-03T08:35:05;33.80;64.90
67750;DHT22;54550;48.838;8.828;2022-08-03T08:37:31;33.20;64.50
67750;DHT22;54550;48.838;8.828;2022-08-03T08:39:57;32.40;65.60
67750;DHT22;54550;48.838;8.828;2022-08-03T08:42:23;32.40;64.90
67750;DHT22;54550;48.838;8.828;2022-08-03T08:44:49;32.90;65.80
67750;DHT22;54550;48.838;8.828;2022-08-03T08:47:23;33.40;63.90
67750;DHT22;54550;48.838;8.828;2022-08-03T08:49:52;33.50;63.70
67750;DHT22;54550;48.838;8.828;2022-08-03T08:52:22;33.20;62.20
67750;DHT22;54550;48.838;8.828;2022-08-03T08:54:48;33.00;63.00
67750;DHT22;54550;48.838;8.828;2022-08-03T08:57:14;33.00;64.60
67750;DHT22;54550;48.838;8.828;2022-08-03T08:59:42;33.40;62.10
67750;DHT22;54550;48.838;8.828;2022-08-03T09:02:08;33.80;61.90
67750;DHT22;54550;48.838;8.828;2022-08-03T09:04:35;34.00;62.20
67750;DHT22;54550;48.838;8.828;2022-08-03T09:07:02;34.00;60.80
67750;DHT22;54550;48.838;8.828;2022-08-03T09:09:29;34.40;58.10
67750;DHT22;54550;48.838;8.828;2022-08-03T09:11:55;34.80;56.20
67750;DHT22;54550;48.838;8.828;2022-08-03T09:14:21;34.70;57.70
67750;DHT22;54550;48.838;8.828;2022-08-03T09:16:57;34.90;56.70
67750;DHT22;54550;48.838;8.828;2022-08-03T09:19:25;35.00;56.80
67750;DHT22;54550;48.838;8.828;2022-08-03T09:22:07;35.50;57.30
67750;DHT22;54550;48.838;8.828;2022-08-03T09:24:34;35.70;57.50
67750;DHT22;54550;48.838;8.828;2022-08-03T09:27:00;35.80;56.40
67750;DHT22;54550;48.838;8.828;2022-08-03T09:29:25;35.20;56.90
67750;DHT22;54550;48.838;8.828;2022-08-03T09:32:03;35.50;58.40
67750;DHT22;54550;48.838;8.828;2022-08-03T09:34:29;35.70;57.30
67750;DHT22;54550;48.838;8.828;2022-08-03T09:36:55;35.40;57.10
67750;DHT22;54550;48.838;8.828;2022-08-03T09:39:24;34.70;57.30
67750;DHT22;54550;48.838;8.828;2022-08-03T09:44:34;34.60;58.10
67750;DHT22;54550;48.838;8.828;2022-08-03T09:47:00;34.70;57.50
67750;DHT22;54550;48.838;8.828;2022-08-03T09:49:26;35.20;57.80
67750;DHT22;54550;48.838;8.828;2022-08-03T09:51:52;35.10;58.00
67750;DHT22;54550;48.838;8.828;2022-08-03T09:54:28;35.20;58.10
67750;DHT22;54550;48.838;8.828;2022-08-03T09:56:55;35.80;56.70
67750;DHT22;54550;48.838;8.828;2022-08-03T09:59:28;36.30;56.40
67750;DHT22;54550;48.838;8.828;2022-08-03T10:01:55;36.10;55.70
67750;DHT22;54550;48.838;8.828;2022-08-03T10:04:22;36.10;58.00
67750;DHT22;54550;48.838;8.828;2022-08-03T10:07:07;36.00;55.00
67750;DHT22;54550;48.838;8.828;2022-08-03T10:09:34;35.40;57.20
67750;DHT22;54550;48.838;8.828;2022-08-03T10:12:11;35.70;56.70
67750;DHT22;54550;48.838;8.828;2022-08-03T10:14:38;35.80;56.80
67750;DHT22;54550;48.838;8.828;2022-08-03T10:17:04;35.80;55.70
67750;DHT22;54550;48.838;8.828;2022-08-03T10:19:29;35.70;56.50
67750;DHT22;54550;48.838;8.828;2022-08-03T10:22:06;35.50;56.40
67750;DHT22;54550;48.838;8.828;2022-08-03T10:24:34;34.90;57.50
67750;DHT22;54550;48.838;8.828;2022-08-03T10:27:06;35.60;58.00
67750;DHT22;54550;48.838;8.828;2022-08-03T10:29:37;35.80;55.80
67750;DHT22;54550;48.838;8.828;2022-08-03T10:32:06;36.10;56.60
67750;DHT22;54550;48.838;8.828;2022-08-03T10:34:37;36.40;56.40
67750;DHT22;54550;48.838;8.828;2022-08-03T10:37:08;36.20;55.10
67750;DHT22;54550;48.838;8.828;2022-08-03T10:39:35;36.20;54.90
67750;DHT22;54550;48.838;8.828;2022-08-03T10:42:01;35.00;55.80
67750;DHT22;54550;48.838;8.828;2022-08-03T10:44:36;34.60;56.70
67750;DHT22;54550;48.838;8.828;2022-08-03T10:47:04;35.60;57.80
67750;DHT22;54550;48.838;8.828;2022-08-03T10:49:30;35.00;56.50
67750;DHT22;54550;48.838;8.828;2022-08-03T10:51:56;35.90;55.70
67750;DHT22;54550;48.838;8.828;2022-08-03T11:00:08;35.50;55.00
67750;DHT22;54550;48.838;8.828;2022-08-03T11:03:03;35.70;55.00
67750;DHT22;54550;48.838;8.828;2022-08-03T11:05:40;35.30;55.80
67750;DHT22;54550;48.838;8.828;2022-08-03T11:08:22;35.20;55.90
67750;DHT22;54550;48.838;8.828;2022-08-03T11:10:49;34.90;56.00
67750;DHT22;54550;48.838;8.828;2022-08-03T11:13:20;34.70;56.20
67750;DHT22;54550;48.838;8.828;2022-08-03T11:15:51;34.70;57.40
67750;DHT22;54550;48.838;8.828;2022-08-03T11:18:17;35.40;56.60
67750;DHT22;54550;48.838;8.828;2022-08-03T11:20:49;35.70;56.20
67750;DHT22;54550;48.838;8.828;2022-08-03T11:23:17;36.70;54.70
67750;DHT22;54550;48.838;8.828;2022-08-03T11:26:07;37.00;54.00
67750;DHT22;54550;48.838;8.828;2022-08-03T11:28:32;37.10;54.80
67750;DHT22;54550;48.838;8.828;2022-08-03T11:31:42;37.00;54.90
67750;DHT22;54550;48.838;8.828;2022-08-03T11:34:08;36.90;53.40
67750;DHT22;54550;48.838;8.828;2022-08-03T11:39:38;37.00;51.70
67750;DHT22;54550;48.838;8.828;2022-08-03T11:44:49;37.50;50.60
67750;DHT22;54550;48.838;8.828;2022-08-03T11:47:16;37.50;51.20
67750;DHT22;54550;48.838;8.828;2022-08-03T11:49:47;37.90;51.30
67750;DHT22;54550;48.838;8.828;2022-08-03T11:52:13;37.60;51.90
67750;DHT22;54550;48.838;8.828;2022-08-03T11:54:40;36.70;52.70
67750;DHT22;54550;48.838;8.828;2022-08-03T11:57:05;35.50;53.80
67750;DHT22;54550;48.838;8.828;2022-08-03T11:59:33;35.80;53.90
67750;DHT22;54550;48.838;8.828;2022-08-03T12:02:12;35.90;53.30
67750;DHT22;54550;48.838;8.828;2022-08-03T12:04:57;36.10;53.40
67750;DHT22;54550;48.838;8.828;2022-08-03T12:07:26;36.20;52.60
67750;DHT22;54550;48.838;8.828;2022-08-03T12:10:13;36.10;52.30
67750;DHT22;54550;48.838;8.828;2022-08-03T12:12:40;36.80;51.80
67750;DHT22;54550;48.838;8.828;2022-08-03T12:15:07;37.20;51.30
67750;DHT22;54550;48.838;8.828;2022-08-03T12:17:34;37.40;51.70
67750;DHT22;54550;48.838;8.828;2022-08-03T12:20:00;37.80;50.70
67750;DHT22;54550;48.838;8.828;2022-08-03T12:22:37;37.00;50.80
67750;DHT22;54550;48.838;8.828;2022-08-03T12:25:07;35.70;52.10
67750;DHT22;54550;48.838;8.828;2022-08-03T12:27:33;35.00;53.00
67750;DHT22;54550;48.838;8.828;2022-08-03T12:29:59;34.90;53.50
67750;DHT22;54550;48.838;8.828;2022-08-03T12:32:29;35.00;53.30
67750;DHT22;54550;48.838;8.828;2022-08-03T12:34:57;35.00;52.90
67750;DHT22;54550;48.838;8.828;2022-08-03T12:37:24;35.00;53.20
67750;DHT22;54550;48.838;8.828;2022-08-03T12:39:55;34.90;53.30
67750;DHT22;54550;48.838;8.828;2022-08-03T12:42:29;35.00;53.60
67750;DHT22;54550;48.838;8.828;2022-08-03T12:44:55;35.10;53.40
67750;DHT22;54550;48.838;8.828;2022-08-03T12:47:20;35.40;53.40
67750;DHT22;54550;48.838;8.828;2022-08-03T12:49:46;36.40;52.10
67750;DHT22;54550;48.838;8.828;2022-08-03T12:52:12;36.80;51.70
67750;DHT22;54550;48.838;8.828;2022-08-03T12:54:38;37.70;51.20
67750;DHT22;54550;48.838;8.828;2022-08-03T12:57:10;37.80;51.20
67750;DHT22;54550;48.838;8.828;2022-08-03T12:59:38;38.10;49.90
67750;DHT22;54550;48.838;8.828;2022-08-03T13:02:22;37.70;51.30
67750;DHT22;54550;48.838;8.828;2022-08-03T13:04:49;38.30;50.80
67750;DHT22;54550;48.838;8.828;2022-08-03T13:07:16;38.60;50.10
67750;DHT22;54550;48.838;8.828;2022-08-03T13:09:50;37.40;50.10
67750;DHT22;54550;48.838;8.828;2022-08-03T13:12:24;37.60;50.80
67750;DHT22;54550;48.838;8.828;2022-08-03T13:14:53;37.90;50.00
67750;DHT22;54550;48.838;8.828;2022-08-03T13:17:19;38.00;49.70
67750;DHT22;54550;48.838;8.828;2022-08-03T13:19:46;37.80;50.60
67750;DHT22;54550;48.838;8.828;2022-08-03T13:22:17;37.70;49.80
67750;DHT22;54550;48.838;8.828;2022-08-03T13:24:44;37.80;51.00
67750;DHT22;54550;48.838;8.828;2022-08-03T13:27:11;37.20;51.40
67750;DHT22;54550;48.838;8.828;2022-08-03T13:29:37;36.90;50.30
67750;DHT22;54550;48.838;8.828;2022-08-03T13:32:03;37.30;49.90
67750;DHT22;54550;48.838;8.828;2022-08-03T13:34:29;37.20;50.20
67750;DHT22;54550;48.838;8.828;2022-08-03T13:36:55;36.60;50.70
67750;DHT22;54550;48.838;8.828;2022-08-03T13:39:21;37.10;50.60
67750;DHT22;54550;48.838;8.828;2022-08-03T13:41:47;37.80;49.60
67750;DHT22;54550;48.838;8.828;2022-08-03T13:44:13;37.20;49.90
67750;DHT22;54550;48.838;8.828;2022-08-03T13:46:38;37.00;50.80
67750;DHT22;54550;48.838;8.828;2022-08-03T13:49:05;36.90;51.50
67750;DHT22;54550;48.838;8.828;2022-08-03T13:51:31;37.40;50.20
67750;DHT22;54550;48.838;8.828;2022-08-03T13:53:57;37.20;50.30
67750;DHT22;54550;48.838;8.828;2022-08-03T13:56:24;36.70;50.50
67750;DHT22;54550;48.838;8.828;2022-08-03T13:58:50;36.70;50.70
67750;DHT22;54550;48.838;8.828;2022-08-03T14:01:16;36.30;51.00
67750;DHT22;54550;48.838;8.828;2022-08-03T14:03:41;36.30;51.70
67750;DHT22;54550;48.838;8.828;2022-08-03T14:06:07;36.80;50.70
67750;DHT22;54550;48.838;8.828;2022-08-03T14:08:33;37.00;50.60
67750;DHT22;54550;48.838;8.828;2022-08-03T14:10:58;36.10;51.00
67750;DHT22;54550;48.838;8.828;2022-08-03T14:13:24;35.30;52.40
67750;DHT22;54550;48.838;8.828;2022-08-03T14:15:49;34.70;52.60
67750;DHT22;54550;48.838;8.828;2022-08-03T14:18:16;34.30;53.20
67750;DHT22;54550;48.838;8.828;2022-08-03T14:20:43;34.20;53.50
67750;DHT22;54550;48.838;8.828;2022-08-03T14:23:09;34.40;54.10
67750;DHT22;54550;48.838;8.828;2022-08-03T14:25:34;34.70;53.20
67750;DHT22;54550;48.838;8.828;2022-08-03T14:28:00;34.60;52.90
67750;DHT22;54550;48.838;8.828;2022-08-03T14:30:26;34.10;53.50
67750;DHT22;54550;48.838;8.828;2022-08-03T14:32:51;34.00;54.10
67750;DHT22;54550;48.838;8.828;2022-08-03T14:35:17;33.90;54.00
67750;DHT22;54550;48.838;8.828;2022-08-03T14:37:42;33.60;54.40
67750;DHT22;54550;48.838;8.828;2022-08-03T14:40:08;33.50;54.50
67750;DHT22;54550;48.838;8.828;2022-08-03T14:42:34;33.80;54.10
67750;DHT22;54550;48.838;8.828;2022-08-03T14:44:59;34.10;53.60
67750;DHT22;54550;48.838;8.828;2022-08-03T14:47:25;34.10;53.60
67750;DHT22;54550;48.838;8.828;2022-08-03T14:49:50;33.90;53.90
67750;DHT22;54550;48.838;8.828;2022-08-03T14:52:16;34.20;53.70
67750;DHT22;54550;48.838;8.828;2022-08-03T14:54:41;34.30;53.70
67750;DHT22;54550;48.838;8.828;2022-08-03T14:57:07;34.00;53.70
67750;DHT22;54550;48.838;8.828;2022-08-03T14:59:32;33.90;54.10
67750;DHT22;54550;48.838;8.828;2022-08-03T15:01:58;33.90;54.20
67750;DHT22;54550;48.838;8.828;2022-08-03T15:04:23;34.00;54.30
67750;DHT22;54550;48.838;8.828;2022-08-03T15:06:49;33.80;54.10
67750;DHT22;54550;48.838;8.828;2022-08-03T15:09:15;33.70;54.10
67750;DHT22;54550;48.838;8.828;2022-08-03T15:11:41;33.20;55.00
67750;DHT22;54550;48.838;8.828;2022-08-03T15:14:07;33.10;55.00
67750;DHT22;54550;48.838;8.828;2022-08-03T15:16:32;33.00;56.30
67750;DHT22;54550;48.838;8.828;2022-08-03T15:18:58;32.90;55.60
67750;DHT22;54550;48.838;8.828;2022-08-03T15:21:25;33.00;55.30
67750;DHT22;54550;48.838;8.828;2022-08-03T15:23:50;33.10;55.80
67750;DHT22;54550;48.838;8.828;2022-08-03T15:26:17;33.30;55.60
67750;DHT22;54550;48.838;8.828;2022-08-03T15:28:42;33.40;55.80
67750;DHT22;54550;48.838;8.828;2022-08-03T15:31:08;33.60;55.70
67750;DHT22;54550;48.838;8.828;2022-08-03T15:33:33;33.70;56.10
67750;DHT22;54550;48.838;8.828;2022-08-03T15:35:59;33.50;55.20
67750;DHT22;54550;48.838;8.828;2022-08-03T15:38:24;33.50;55.60
67750;DHT22;54550;48.838;8.828;2022-08-03T15:40:50;33.40;55.80
67750;DHT22;54550;48.838;8.828;2022-08-03T15:43:19;33.20;55.60
67750;DHT22;54550;48.838;8.828;2022-08-03T15:45:45;33.30;55.80
67750;DHT22;54550;48.838;8.828;2022-08-03T15:48:10;33.40;56.00
67750;DHT22;54550;48.838;8.828;2022-08-03T15:50:36;33.40;56.20
67750;DHT22;54550;48.838;8.828;2022-08-03T15:53:02;33.50;55.90
67750;DHT22;54550;48.838;8.828;2022-08-03T15:55:28;33.20;56.00
67750;DHT22;54550;48.838;8.828;2022-08-03T15:57:55;33.10;56.40
67750;DHT22;54550;48.838;8.828;2022-08-03T16:00:21;32.90;57.10
67750;DHT22;54550;48.838;8.828;2022-08-03T16:02:46;32.90;56.70
67750;DHT22;54550;48.838;8.828;2022-08-03T16:05:12;32.90;57.00